Flood From: 18-02-2018 16:00 Until: 19-02-2018 16:00 warning for: Flood Level: Yellow info button

Although rather usual in this region, locally or potentially dangerous phenomena are expected. (such as local winds, summer thunderstorms, rising streams or high waves) Be aware and pay attention to the latest weather updates, especially if you carry out activities exposed to weather or close to a stream or shoreline. 


Meteo18 Weather Cam more information Meteo18 Weather Cam


Thunder radar more information blitzortung!


Rain radar more information rain snow radar


Visit our other weather sites:

Template documentation
and downloads

And another site



Weather Underground History page Text

Daily Summary for November 20, 2017 Units:  Metric    English   Both
« Previous Day
Next Day »
Daily Weekly Monthly Yearly Custom
  High: Low: Average:
Temperature: -17.8 °C -16.6 °C -14.5 °C
Dew Point: -17.8 °C -16.9 °C -14.9 °C
Humidity: Humidity % 90 % 94 %
Wind Speed: 0 km/h 0 km/h 7.2 km/h
Wind Gust: 0 km/h - -
Wind:- - SSW
Pressure: 0 hPa 34611.7 hPa -
Precipitation: 0 mm    
Historical Graphs
 
 
Tabular Data for November 20, 2017
Time Temperature Dew Point Pressure Wind Wind Speed Wind Gust Humidity Rainfall Rate (Hourly)
-17.8 °C -17.8 °C 0 hPa Calm     Humidity % 0 mm
00:02 -16.6 °C -16.9 °C 34760.7 hPa Calm     96 % 0 mm
00:07 -16.6 °C -16.9 °C 34760.7 hPa Calm     96 % 0 mm
00:12 -16.6 °C -16.8 °C 34760.7 hPa Calm     97 % 0 mm
00:17 -16.6 °C -16.8 °C 34760.7 hPa Calm     97 % 0 mm
00:22 -16.6 °C -16.8 °C 34760.7 hPa Calm     97 % 0 mm
00:42 -16.5 °C -16.7 °C 34760.7 hPa Calm   2.6 km/h 97 % 0 mm
00:47 -16.4 °C -16.7 °C 34750.5 hPa Calm     97 % 0 mm
00:52 -16.4 °C -16.7 °C 34750.5 hPa Calm   2.6 km/h 97 % 0 mm
01:02 -16.4 °C -16.7 °C 34750.5 hPa Calm   2.6 km/h 97 % 0 mm
01:07 -16.3 °C -16.6 °C 34750.5 hPa Calm   2.6 km/h 97 % 0 mm
01:12 -16.2 °C -16.4 °C 34750.5 hPa Calm   2.6 km/h 97 % 0 mm
01:17 -16.2 °C -16.4 °C 34750.5 hPa Calm   2.6 km/h 97 % 0 mm
01:22 -16.1 °C -16.3 °C 34750.5 hPa Calm   2.6 km/h 97 % 0 mm
01:32 -15.9 °C -16.2 °C 34750.5 hPa Calm   5.1 km/h 97 % 0 mm
01:37 -16 °C -16.2 °C 34750.5 hPa West 2.6 km/h 5.1 km/h 97 % 0 mm
01:42 -16 °C -16.2 °C 34750.5 hPa Calm   5.1 km/h 97 % 0 mm
01:47 -16 °C -16.2 °C 34750.5 hPa Calm   5.1 km/h 97 % 0 mm
02:07 -15.7 °C -15.9 °C 34750.5 hPa WSW 7.7 km/h 7.7 km/h 97 % 0 mm
02:17 -15.6 °C -15.7 °C 34750.5 hPa WSW 5.1 km/h 15.6 km/h 98 % 0 mm
02:22 -15.5 °C -15.7 °C 34740.4 hPa SW 10.3 km/h 18.2 km/h 98 % 0 mm
02:32 -15.5 °C -15.7 °C 34740.4 hPa SW 5.1 km/h 18.2 km/h 97 % 0 mm
02:37 -15.4 °C -15.7 °C 34740.4 hPa WSW 5.1 km/h 18.2 km/h 97 % 0 mm
02:42 -15.9 °C -16.1 °C 34740.4 hPa WSW 2.6 km/h 15.6 km/h 97 % 0 mm
02:52 -15.8 °C -15.8 °C 34740.4 hPa West 7.7 km/h 15.6 km/h 100 % 0 mm
02:57 -15.8 °C -15.8 °C 34750.5 hPa West 7.7 km/h 12.9 km/h 100 % 0 mm
09:12 -15.6 °C -15.8 °C 34740.4 hPa SSW 5.1 km/h -2586.8 km/h 97 % 0 mm
09:17 -15.6 °C -15.8 °C 34750.5 hPa SW 5.1 km/h 20.8 km/h 97 % 0 mm
09:22 -15.6 °C -15.8 °C 34750.5 hPa SW 5.1 km/h 20.8 km/h 97 % 0 mm
09:27 -15.5 °C -15.7 °C 34750.5 hPa SW 10.3 km/h 12.9 km/h 97 % 0 mm
09:32 -15.6 °C -15.9 °C 34750.5 hPa West 2.6 km/h 12.9 km/h 96 % 0 mm
09:37 -15.6 °C -15.8 °C 34750.5 hPa SSW 2.6 km/h 20.8 km/h 97 % 0 mm
09:42 -15.5 °C -15.7 °C 34750.5 hPa SW 10.3 km/h 20.8 km/h 97 % 0 mm
09:52 -15.5 °C -15.7 °C 34750.5 hPa WSW 10.3 km/h 15.6 km/h 97 % 0 mm
09:57 -15.5 °C -15.7 °C 34740.4 hPa SSW 2.6 km/h 15.6 km/h 97 % 0 mm
10:02 -15.5 °C -15.7 °C 34750.5 hPa SW 7.7 km/h 12.9 km/h 97 % 0 mm
10:12 -15.5 °C -15.7 °C 34750.5 hPa SW 10.3 km/h 12.9 km/h 97 % 0 mm
10:17 -15.5 °C -15.8 °C 34750.5 hPa SW 2.6 km/h 12.9 km/h 96 % 0 mm
10:22 -15.5 °C -15.7 °C 34760.7 hPa SW 7.7 km/h 12.9 km/h 97 % 0 mm
10:32 -15.4 °C -15.6 °C 34750.5 hPa South 2.6 km/h 12.9 km/h 97 % 0 mm
10:37 -15.4 °C -15.6 °C 34750.5 hPa South 2.6 km/h 10.3 km/h 97 % 0 mm
10:47 -15.3 °C -15.6 °C 34760.7 hPa SSW 12.9 km/h 12.9 km/h 97 % 0 mm
10:52 -15.4 °C -15.6 °C 34750.5 hPa SSW 10.3 km/h 12.9 km/h 97 % 0 mm
10:57 -15.3 °C -15.6 °C 34760.7 hPa South 12.9 km/h 12.9 km/h 97 % 0 mm
11:07 -15.4 °C -15.6 °C 34760.7 hPa SSW 10.3 km/h 15.6 km/h 97 % 0 mm
11:12 -15.3 °C -15.6 °C 34750.5 hPa SSW 7.7 km/h 15.6 km/h 97 % 0 mm
11:17 -15.3 °C -15.5 °C 34750.5 hPa South 2.6 km/h 15.6 km/h 97 % 0 mm
11:37 -15.2 °C -15.4 °C 34740.4 hPa SSE 7.7 km/h 18.2 km/h 97 % 0 mm
11:42 -15.2 °C -15.4 °C 34740.4 hPa SE 2.6 km/h 18.2 km/h 97 % 0 mm
11:52 -15.1 °C -15.3 °C 34740.4 hPa SSW 5.1 km/h 15.6 km/h 97 % 0 mm
11:57 -15.1 °C -15.3 °C 34740.4 hPa SSW 5.1 km/h 20.8 km/h 97 % 0 mm
12:12 -15.1 °C -15.4 °C 34726.8 hPa SSE 10.3 km/h 20.8 km/h 96 % 0 mm
12:17 -14.9 °C -15.2 °C 34726.8 hPa SSW 7.7 km/h 18.2 km/h 97 % 0 mm
12:22 -14.9 °C -15.1 °C 34726.8 hPa SSE 5.1 km/h 23.3 km/h 97 % 0 mm
12:32 -14.8 °C -15.1 °C 34716.7 hPa SSE 2.6 km/h 20.8 km/h 97 % 0 mm
12:42 -14.8 °C -15 °C 34716.7 hPa SSW 2.6 km/h 20.8 km/h 97 % 0 mm
12:52 -14.7 °C -15 °C 34716.7 hPa SSW 2.6 km/h 15.6 km/h 96 % 0 mm
13:02 -14.6 °C -14.9 °C 34703.1 hPa SSW 10.3 km/h 15.6 km/h 96 % 0 mm
13:12 -14.4 °C -14.7 °C 34703.1 hPa SW 5.1 km/h 20.8 km/h 96 % 0 mm
13:17 -14.3 °C -14.7 °C 34703.1 hPa SSW 7.7 km/h 20.8 km/h 96 % 0 mm
13:32 -14.2 °C -14.5 °C 34703.1 hPa SSW 10.3 km/h 18.2 km/h 96 % 0 mm
13:37 -14.1 °C -14.5 °C 34703.1 hPa SW 15.6 km/h 18.2 km/h 95 % 0 mm
13:42 -14.1 °C -14.4 °C 34693 hPa SW 15.6 km/h 18.2 km/h 95 % 0 mm
13:47 -14.1 °C -14.4 °C 34693 hPa SSW 5.1 km/h 18.2 km/h 95 % 0 mm
13:57 -13.8 °C -14.3 °C 34682.8 hPa SSW 7.7 km/h 20.8 km/h 94 % 0 mm
14:02 -13.8 °C -14.3 °C 34682.8 hPa SSW 7.7 km/h 20.8 km/h 94 % 0 mm
14:12 -13.7 °C -14.3 °C 34682.8 hPa SSW 7.7 km/h 23.3 km/h 93 % 0 mm
14:17 -13.6 °C -14.2 °C 34682.8 hPa SSE 5.1 km/h 23.3 km/h 93 % 0 mm
14:32 -13.4 °C -14.1 °C 34669.3 hPa SW 31.1 km/h 31.1 km/h 93 % 0 mm
14:42 -13.4 °C -14.1 °C 34669.3 hPa SW 12.9 km/h 31.1 km/h 92 % 0 mm
14:52 -13.3 °C -13.9 °C 34659.1 hPa South 12.9 km/h 25.9 km/h 92 % 0 mm
15:02 -13.2 °C -14.1 °C 34659.1 hPa South 10.3 km/h 25.9 km/h 90 % 0 mm
15:07 -13.1 °C -13.9 °C 34659.1 hPa SW 23.3 km/h 25.9 km/h 91 % 0 mm
15:12 -13.1 °C -13.9 °C 34659.1 hPa SSW 12.9 km/h 25.9 km/h 91 % 0 mm
15:17 -13.1 °C -13.9 °C 34659.1 hPa SW 15.6 km/h 25.9 km/h 90 % 0 mm
15:27 -13 °C -13.8 °C 34659.1 hPa SW 5.1 km/h 25.9 km/h 90 % 0 mm
15:32 -12.9 °C -13.8 °C 34659.1 hPa SW 7.7 km/h 23.3 km/h 90 % 0 mm
15:42 -12.9 °C -13.8 °C 34659.1 hPa SSW 18.2 km/h 20.8 km/h 90 % 0 mm
15:52 -12.9 °C -13.8 °C 34659.1 hPa South 5.1 km/h 20.8 km/h 90 % 0 mm
16:02 -13 °C -13.8 °C 34659.1 hPa SSW 2.6 km/h 20.8 km/h 91 % 0 mm
16:07 -13 °C -13.8 °C 34659.1 hPa SSW 10.3 km/h 20.8 km/h 91 % 0 mm
16:12 -13 °C -13.8 °C 34659.1 hPa SSW 10.3 km/h 23.3 km/h 91 % 0 mm
16:22 -13.1 °C -13.9 °C 34659.1 hPa SSW 10.3 km/h 23.3 km/h 91 % 0 mm
16:27 -13.1 °C -13.9 °C 34659.1 hPa South 15.6 km/h 18.2 km/h 91 % 0 mm
16:32 -13.1 °C -13.9 °C 34645.6 hPa SW 15.6 km/h 23.3 km/h 91 % 0 mm
16:42 -13.2 °C -13.9 °C 34659.1 hPa SSW 7.7 km/h 23.3 km/h 92 % 0 mm
16:47 -13.2 °C -13.9 °C 34659.1 hPa SSW 7.7 km/h 23.3 km/h 92 % 0 mm
16:52 -13.3 °C -13.9 °C 34645.6 hPa SW 5.1 km/h 18.2 km/h 92 % 0 mm
16:57 -13.3 °C -13.9 °C 34645.6 hPa South 5.1 km/h 15.6 km/h 92 % 0 mm
17:02 -13.4 °C -14.1 °C 34645.6 hPa SSW 5.1 km/h 12.9 km/h 92 % 0 mm
17:07 -13.4 °C -14.1 °C 34645.6 hPa South 5.1 km/h 12.9 km/h 92 % 0 mm
17:17 -13.5 °C -14.1 °C 34645.6 hPa SE 2.6 km/h 7.7 km/h 93 % 0 mm
17:22 -13.6 °C -14.2 °C 34645.6 hPa SSE 7.7 km/h 10.3 km/h 93 % 0 mm
17:27 -13.6 °C -14.2 °C 34645.6 hPa SSW 7.7 km/h 12.9 km/h 93 % 0 mm
17:32 -13.7 °C -14.3 °C 34635.4 hPa Calm   12.9 km/h 93 % 0 mm
17:37 -13.7 °C -14.3 °C 34635.4 hPa SSE 5.1 km/h 12.9 km/h 93 % 0 mm
17:47 -13.8 °C -14.3 °C 34635.4 hPa SSE 2.6 km/h 10.3 km/h 94 % 0 mm
17:52 -13.8 °C -14.3 °C 34635.4 hPa South 2.6 km/h 12.9 km/h 94 % 0 mm
17:57 -13.9 °C -14.4 °C 34635.4 hPa Calm   12.9 km/h 94 % 0 mm
18:12 -14 °C -14.5 °C 34635.4 hPa South 5.1 km/h 7.7 km/h 94 % 0 mm
18:17 -14.1 °C -14.6 °C 34635.4 hPa Calm   7.7 km/h 94 % 0 mm
18:32 -14.2 °C -14.6 °C 34625.2 hPa SSW 5.1 km/h 7.7 km/h 95 % 0 mm
18:37 -14.2 °C -14.6 °C 34635.4 hPa SSW 2.6 km/h 7.7 km/h 95 % 0 mm
18:42 -14.2 °C -14.6 °C 34625.2 hPa SW 5.1 km/h 10.3 km/h 95 % 0 mm
18:47 -14.2 °C -14.6 °C 34625.2 hPa SSW 7.7 km/h 10.3 km/h 96 % 0 mm
18:57 -14.1 °C -14.4 °C 34625.2 hPa SSW 10.3 km/h 15.6 km/h 96 % 0 mm
19:02 -14 °C -14.3 °C 34635.4 hPa SSW 7.7 km/h 15.6 km/h 96 % 0 mm
19:17 -13.9 °C -14.3 °C 34625.2 hPa SSW 7.7 km/h 15.6 km/h 96 % 0 mm
19:22 -13.9 °C -14.3 °C 34625.2 hPa SSW 7.7 km/h 18.2 km/h 95 % 0 mm
19:27 -13.9 °C -14.3 °C 34625.2 hPa SW 7.7 km/h 18.2 km/h 95 % 0 mm
19:37 -13.9 °C -14.3 °C 34625.2 hPa SSW 7.7 km/h 15.6 km/h 95 % 0 mm
19:42 -13.9 °C -14.3 °C 34625.2 hPa SW 10.3 km/h 15.6 km/h 95 % 0 mm
20:02 -13.8 °C -14.2 °C 34625.2 hPa South 7.7 km/h 18.2 km/h 95 % 0 mm
20:07 -13.8 °C -14.3 °C 34625.2 hPa SW 10.3 km/h 18.2 km/h 94 % 0 mm
20:12 -13.8 °C -14.3 °C 34625.2 hPa SW 7.7 km/h 18.2 km/h 94 % 0 mm
20:27 -13.9 °C -14.4 °C 34625.2 hPa SSW 10.3 km/h 20.8 km/h 94 % 0 mm
20:32 -13.9 °C -14.4 °C 34625.2 hPa SSW 7.7 km/h 20.8 km/h 94 % 0 mm
20:37 -13.9 °C -14.6 °C 34625.2 hPa SW 12.9 km/h 20.8 km/h 93 % 0 mm
20:42 -13.9 °C -14.4 °C 34625.2 hPa SW 10.3 km/h 20.8 km/h 94 % 0 mm
20:52 -13.9 °C -14.6 °C 34625.2 hPa SW 12.9 km/h 18.2 km/h 93 % 0 mm
20:57 -13.9 °C -14.6 °C 34625.2 hPa SW 10.3 km/h 18.2 km/h 93 % 0 mm
21:02 -13.9 °C -14.6 °C 34625.2 hPa WSW 7.7 km/h 15.6 km/h 93 % 0 mm
21:12 -13.9 °C -14.6 °C 34625.2 hPa SW 15.6 km/h 20.8 km/h 93 % 0 mm
21:17 -13.9 °C -14.6 °C 34625.2 hPa WSW 12.9 km/h 20.8 km/h 93 % 0 mm
21:27 -13.9 °C -14.5 °C 34625.2 hPa SW 12.9 km/h 25.9 km/h 93 % 0 mm
21:32 -13.9 °C -14.5 °C 34625.2 hPa SW 12.9 km/h 25.9 km/h 93 % 0 mm
21:42 -13.8 °C -14.4 °C 34625.2 hPa WSW 10.3 km/h 18.2 km/h 93 % 0 mm
21:47 -13.8 °C -14.4 °C 34625.2 hPa SW 18.2 km/h 18.2 km/h 93 % 0 mm
21:52 -13.8 °C -14.4 °C 34625.2 hPa SW 15.6 km/h 23.3 km/h 93 % 0 mm
21:57 -13.8 °C -14.4 °C 34625.2 hPa WSW 7.7 km/h 23.3 km/h 93 % 0 mm
22:02 -13.8 °C -14.4 °C 34625.2 hPa WSW 15.6 km/h 23.3 km/h 93 % 0 mm
22:17 -13.8 °C -14.4 °C 34625.2 hPa WSW 12.9 km/h 25.9 km/h 92 % 0 mm
22:22 -13.8 °C -14.4 °C 34625.2 hPa SW 15.6 km/h 25.9 km/h 92 % 0 mm
22:32 -13.8 °C -14.4 °C 34625.2 hPa WSW 10.3 km/h 23.3 km/h 93 % 0 mm
22:52 -13.9 °C -14.5 °C 34625.2 hPa SSW 5.1 km/h 20.8 km/h 93 % 0 mm
23:02 -14 °C -14.6 °C 34625.2 hPa SW 5.1 km/h 15.6 km/h 93 % 0 mm
23:17 -14.1 °C -14.6 °C 34611.7 hPa SW 15.6 km/h 15.6 km/h 94 % 0 mm
23:22 -14.1 °C -14.6 °C 34611.7 hPa SW 7.7 km/h 18.2 km/h 94 % 0 mm
23:27 -14.2 °C -14.7 °C 34611.7 hPa SW 7.7 km/h 18.2 km/h 94 % 0 mm
23:32 -14.2 °C -14.7 °C 34611.7 hPa SSW 7.7 km/h 18.2 km/h 94 % 0 mm
23:37 -14.2 °C -14.7 °C 34625.2 hPa SSW 2.6 km/h 15.6 km/h 94 % 0 mm
23:47 -14.2 °C -14.7 °C 34611.7 hPa SW 7.7 km/h 12.9 km/h 94 % 0 mm
23:52 -14.3 °C -14.8 °C 34625.2 hPa SW 7.7 km/h 12.9 km/h 94 % 0 mm
23:57 -14.3 °C -14.7 °C 34625.2 hPa SSW 2.6 km/h 12.9 km/h 95 % 0 mm
Meteo18
Compliments of Weather Underground - 4 mb

Script developed by  Jim McMurry - jmcmurry@mwt.net Adapted for the template by  Wim van der Kuil - Leuven-Template.eu

You find our weather info also at:

European Weather Network

Weather Underground

Equipment we use:

Weather-station
Davis Vue

Weather-program
Meteobridge

Weather-server
Raspberry PI 2 B+

Provider
1 and 1

Davis Vue

Meteobridge

Raspberry PI 2 B+

1 and 1